sensor_id;sensor_type;location;lat;lon;timestamp;temperature;humidity
21612;DHT22;47005;52.292;13.452;2022-09-09T00:12:34;16.10;99.90
21612;DHT22;47005;52.292;13.452;2022-09-09T00:15:13;16.10;99.90
21612;DHT22;47005;52.292;13.452;2022-09-09T00:17:51;16.10;99.90
21612;DHT22;47005;52.292;13.452;2022-09-09T00:20:44;16.10;99.90
21612;DHT22;47005;52.292;13.452;2022-09-09T00:28:20;16.00;99.90
21612;DHT22;47005;52.292;13.452;2022-09-09T00:30:47;16.00;99.90
21612;DHT22;47005;52.292;13.452;2022-09-09T00:33:16;16.00;99.90
21612;DHT22;47005;52.292;13.452;2022-09-09T00:35:57;15.90;99.90
21612;DHT22;47005;52.292;13.452;2022-09-09T00:38:35;16.00;99.90
21612;DHT22;47005;52.292;13.452;2022-09-09T00:41:08;15.90;99.90
21612;DHT22;47005;52.292;13.452;2022-09-09T00:43:39;15.90;99.90
21612;DHT22;47005;52.292;13.452;2022-09-09T00:52:59;15.90;99.90
21612;DHT22;47005;52.292;13.452;2022-09-09T00:55:20;15.90;99.90
21612;DHT22;47005;52.292;13.452;2022-09-09T00:57:51;15.90;99.90
21612;DHT22;47005;52.292;13.452;2022-09-09T01:00:21;15.80;99.90
21612;DHT22;47005;52.292;13.452;2022-09-09T01:05:39;15.80;99.90
21612;DHT22;47005;52.292;13.452;2022-09-09T01:11:01;15.80;99.90
21612;DHT22;47005;52.292;13.452;2022-09-09T01:13:33;15.80;99.90
21612;DHT22;47005;52.292;13.452;2022-09-09T01:16:02;15.80;99.90
21612;DHT22;47005;52.292;13.452;2022-09-09T01:18:55;15.70;99.90
21612;DHT22;47005;52.292;13.452;2022-09-09T01:26:44;15.70;99.90
21612;DHT22;47005;52.292;13.452;2022-09-09T01:29:13;15.70;99.90
21612;DHT22;47005;52.292;13.452;2022-09-09T01:32:00;15.70;99.90
21612;DHT22;47005;52.292;13.452;2022-09-09T01:34:31;15.70;99.90
21612;DHT22;47005;52.292;13.452;2022-09-09T01:37:09;15.70;99.90
21612;DHT22;47005;52.292;13.452;2022-09-09T01:39:36;15.60;99.90
21612;DHT22;47005;52.292;13.452;2022-09-09T01:42:05;15.60;99.90
21612;DHT22;47005;52.292;13.452;2022-09-09T01:44:32;15.60;99.90
21612;DHT22;47005;52.292;13.452;2022-09-09T01:46:59;15.60;99.90
21612;DHT22;47005;52.292;13.452;2022-09-09T01:49:24;15.60;99.90
21612;DHT22;47005;52.292;13.452;2022-09-09T01:51:53;15.60;99.90
21612;DHT22;47005;52.292;13.452;2022-09-09T01:54:20;15.50;99.90
21612;DHT22;47005;52.292;13.452;2022-09-09T02:00:30;15.50;99.90
21612;DHT22;47005;52.292;13.452;2022-09-09T02:13:19;15.40;99.90
21612;DHT22;47005;52.292;13.452;2022-09-09T02:15:55;15.40;99.90
21612;DHT22;47005;52.292;13.452;2022-09-09T02:18:48;15.40;99.90
21612;DHT22;47005;52.292;13.452;2022-09-09T02:21:17;15.40;99.90
21612;DHT22;47005;52.292;13.452;2022-09-09T02:23:43;15.40;99.90
21612;DHT22;47005;52.292;13.452;2022-09-09T02:26:12;15.40;99.90
21612;DHT22;47005;52.292;13.452;2022-09-09T02:28:46;15.40;99.90
21612;DHT22;47005;52.292;13.452;2022-09-09T02:31:13;15.40;99.90
21612;DHT22;47005;52.292;13.452;2022-09-09T02:33:42;15.40;99.90
21612;DHT22;47005;52.292;13.452;2022-09-09T02:36:11;15.30;99.90
21612;DHT22;47005;52.292;13.452;2022-09-09T02:38:41;15.30;99.90
21612;DHT22;47005;52.292;13.452;2022-09-09T02:41:08;15.30;99.90
21612;DHT22;47005;52.292;13.452;2022-09-09T02:43:34;15.40;99.90
21612;DHT22;47005;52.292;13.452;2022-09-09T02:46:26;15.30;99.90
21612;DHT22;47005;52.292;13.452;2022-09-09T02:57:10;15.30;99.90
21612;DHT22;47005;52.292;13.452;2022-09-09T02:59:37;15.30;99.90
21612;DHT22;47005;52.292;13.452;2022-09-09T03:02:03;15.30;99.90
21612;DHT22;47005;52.292;13.452;2022-09-09T03:04:29;15.30;99.90
21612;DHT22;47005;52.292;13.452;2022-09-09T03:06:55;15.30;99.90
21612;DHT22;47005;52.292;13.452;2022-09-09T03:09:21;15.20;99.90
21612;DHT22;47005;52.292;13.452;2022-09-09T03:11:46;15.30;99.90
21612;DHT22;47005;52.292;13.452;2022-09-09T03:14:12;15.30;99.90
21612;DHT22;47005;52.292;13.452;2022-09-09T03:16:38;15.20;99.90
21612;DHT22;47005;52.292;13.452;2022-09-09T03:19:03;15.20;99.90
21612;DHT22;47005;52.292;13.452;2022-09-09T03:21:29;15.20;99.90
21612;DHT22;47005;52.292;13.452;2022-09-09T03:23:55;15.30;99.90
21612;DHT22;47005;52.292;13.452;2022-09-09T03:26:20;15.20;99.90
21612;DHT22;47005;52.292;13.452;2022-09-09T03:28:46;15.20;99.90
21612;DHT22;47005;52.292;13.452;2022-09-09T03:31:12;15.20;99.90
21612;DHT22;47005;52.292;13.452;2022-09-09T03:33:38;15.20;99.90
21612;DHT22;47005;52.292;13.452;2022-09-09T03:36:04;15.20;99.90
21612;DHT22;47005;52.292;13.452;2022-09-09T03:38:30;15.10;99.90
21612;DHT22;47005;52.292;13.452;2022-09-09T03:40:57;15.10;99.90
21612;DHT22;47005;52.292;13.452;2022-09-09T03:43:24;15.10;99.90
21612;DHT22;47005;52.292;13.452;2022-09-09T03:45:50;15.10;99.90
21612;DHT22;47005;52.292;13.452;2022-09-09T03:48:16;15.10;99.90
21612;DHT22;47005;52.292;13.452;2022-09-09T03:50:50;15.10;99.90
21612;DHT22;47005;52.292;13.452;2022-09-09T03:53:17;15.10;99.90
21612;DHT22;47005;52.292;13.452;2022-09-09T03:55:52;15.10;99.90
21612;DHT22;47005;52.292;13.452;2022-09-09T03:58:20;15.10;99.90
21612;DHT22;47005;52.292;13.452;2022-09-09T04:00:57;15.10;99.90
21612;DHT22;47005;52.292;13.452;2022-09-09T04:03:24;15.10;99.90
21612;DHT22;47005;52.292;13.452;2022-09-09T04:05:54;15.10;99.90
21612;DHT22;47005;52.292;13.452;2022-09-09T04:08:21;15.10;99.90
21612;DHT22;47005;52.292;13.452;2022-09-09T04:10:48;15.10;99.90
21612;DHT22;47005;52.292;13.452;2022-09-09T04:13:15;15.10;99.90
21612;DHT22;47005;52.292;13.452;2022-09-09T04:15:41;15.10;99.90
21612;DHT22;47005;52.292;13.452;2022-09-09T04:18:07;15.10;99.90
21612;DHT22;47005;52.292;13.452;2022-09-09T04:20:33;15.10;99.90
21612;DHT22;47005;52.292;13.452;2022-09-09T04:22:59;15.10;99.90
21612;DHT22;47005;52.292;13.452;2022-09-09T04:25:25;15.00;99.90
21612;DHT22;47005;52.292;13.452;2022-09-09T04:27:57;15.10;99.90
21612;DHT22;47005;52.292;13.452;2022-09-09T04:30:24;15.00;99.90
21612;DHT22;47005;52.292;13.452;2022-09-09T04:32:50;15.00;99.90
21612;DHT22;47005;52.292;13.452;2022-09-09T04:35:16;15.00;99.90
21612;DHT22;47005;52.292;13.452;2022-09-09T04:37:42;14.90;99.90
21612;DHT22;47005;52.292;13.452;2022-09-09T04:40:08;14.90;99.90
21612;DHT22;47005;52.292;13.452;2022-09-09T04:42:38;15.00;99.90
21612;DHT22;47005;52.292;13.452;2022-09-09T04:45:06;15.00;99.90
21612;DHT22;47005;52.292;13.452;2022-09-09T04:47:32;15.00;99.90
21612;DHT22;47005;52.292;13.452;2022-09-09T04:49:58;15.00;99.90
21612;DHT22;47005;52.292;13.452;2022-09-09T04:52:24;14.90;99.90
21612;DHT22;47005;52.292;13.452;2022-09-09T04:54:50;15.00;99.90
21612;DHT22;47005;52.292;13.452;2022-09-09T04:57:15;15.00;99.90
21612;DHT22;47005;52.292;13.452;2022-09-09T04:59:41;15.00;99.90
21612;DHT22;47005;52.292;13.452;2022-09-09T05:02:06;15.00;99.90
21612;DHT22;47005;52.292;13.452;2022-09-09T05:04:32;14.90;99.90
21612;DHT22;47005;52.292;13.452;2022-09-09T05:06:58;15.00;99.90
21612;DHT22;47005;52.292;13.452;2022-09-09T05:09:25;14.90;99.90
21612;DHT22;47005;52.292;13.452;2022-09-09T05:11:50;14.90;99.90
21612;DHT22;47005;52.292;13.452;2022-09-09T05:14:16;14.90;99.90
21612;DHT22;47005;52.292;13.452;2022-09-09T05:16:44;15.00;99.90
21612;DHT22;47005;52.292;13.452;2022-09-09T05:19:10;14.90;99.90
21612;DHT22;47005;52.292;13.452;2022-09-09T05:21:35;15.00;99.90
21612;DHT22;47005;52.292;13.452;2022-09-09T05:24:01;15.00;99.90
21612;DHT22;47005;52.292;13.452;2022-09-09T05:26:27;14.90;99.90
21612;DHT22;47005;52.292;13.452;2022-09-09T05:28:54;14.90;99.90
21612;DHT22;47005;52.292;13.452;2022-09-09T05:31:20;14.90;99.90
21612;DHT22;47005;52.292;13.452;2022-09-09T05:33:47;15.00;99.90
21612;DHT22;47005;52.292;13.452;2022-09-09T05:36:15;15.00;99.90
21612;DHT22;47005;52.292;13.452;2022-09-09T05:38:42;14.90;99.90
21612;DHT22;47005;52.292;13.452;2022-09-09T05:41:08;15.00;99.90
21612;DHT22;47005;52.292;13.452;2022-09-09T05:43:34;15.00;99.90
21612;DHT22;47005;52.292;13.452;2022-09-09T05:46:12;15.00;99.90
21612;DHT22;47005;52.292;13.452;2022-09-09T05:48:40;15.00;99.90
21612;DHT22;47005;52.292;13.452;2022-09-09T05:51:08;15.00;99.90
21612;DHT22;47005;52.292;13.452;2022-09-09T05:53:35;15.00;99.90
21612;DHT22;47005;52.292;13.452;2022-09-09T05:56:06;15.00;99.90
21612;DHT22;47005;52.292;13.452;2022-09-09T05:58:32;15.00;99.90
21612;DHT22;47005;52.292;13.452;2022-09-09T06:01:03;15.10;99.90
21612;DHT22;47005;52.292;13.452;2022-09-09T06:03:29;15.00;99.90
21612;DHT22;47005;52.292;13.452;2022-09-09T06:06:02;15.10;99.90
21612;DHT22;47005;52.292;13.452;2022-09-09T06:08:31;15.10;99.90
21612;DHT22;47005;52.292;13.452;2022-09-09T06:11:08;15.10;99.90
21612;DHT22;47005;52.292;13.452;2022-09-09T06:13:35;15.10;99.90
21612;DHT22;47005;52.292;13.452;2022-09-09T06:16:05;15.10;99.90
21612;DHT22;47005;52.292;13.452;2022-09-09T06:18:32;15.10;99.90
21612;DHT22;47005;52.292;13.452;2022-09-09T06:21:04;15.10;99.90
21612;DHT22;47005;52.292;13.452;2022-09-09T06:23:30;15.20;99.90
21612;DHT22;47005;52.292;13.452;2022-09-09T06:28:35;15.20;99.90
21612;DHT22;47005;52.292;13.452;2022-09-09T06:31:04;15.20;99.90
21612;DHT22;47005;52.292;13.452;2022-09-09T06:33:35;15.30;99.90
21612;DHT22;47005;52.292;13.452;2022-09-09T06:36:02;15.30;99.90
21612;DHT22;47005;52.292;13.452;2022-09-09T06:38:29;15.30;99.90
21612;DHT22;47005;52.292;13.452;2022-09-09T06:40:56;15.30;99.90
21612;DHT22;47005;52.292;13.452;2022-09-09T06:43:24;15.40;99.90
21612;DHT22;47005;52.292;13.452;2022-09-09T06:46:16;15.40;99.90
21612;DHT22;47005;52.292;13.452;2022-09-09T06:48:44;15.40;99.90
21612;DHT22;47005;52.292;13.452;2022-09-09T06:53:37;15.50;99.90
21612;DHT22;47005;52.292;13.452;2022-09-09T06:58:42;15.50;99.90
21612;DHT22;47005;52.292;13.452;2022-09-09T07:01:10;15.60;99.90
21612;DHT22;47005;52.292;13.452;2022-09-09T07:03:38;15.50;99.90
21612;DHT22;47005;52.292;13.452;2022-09-09T07:06:04;15.60;99.90
21612;DHT22;47005;52.292;13.452;2022-09-09T07:08:30;15.60;99.90
21612;DHT22;47005;52.292;13.452;2022-09-09T07:11:02;15.60;99.90
21612;DHT22;47005;52.292;13.452;2022-09-09T07:13:30;15.70;99.90
21612;DHT22;47005;52.292;13.452;2022-09-09T07:16:06;15.70;99.90
21612;DHT22;47005;52.292;13.452;2022-09-09T07:18:32;15.70;99.90
21612;DHT22;47005;52.292;13.452;2022-09-09T07:20:59;15.80;99.90
21612;DHT22;47005;52.292;13.452;2022-09-09T07:23:24;15.80;99.90
21612;DHT22;47005;52.292;13.452;2022-09-09T07:25:50;15.80;99.90
21612;DHT22;47005;52.292;13.452;2022-09-09T07:28:16;15.90;99.90
21612;DHT22;47005;52.292;13.452;2022-09-09T07:30:42;15.90;99.90
21612;DHT22;47005;52.292;13.452;2022-09-09T07:33:08;15.90;99.90
21612;DHT22;47005;52.292;13.452;2022-09-09T07:35:35;15.90;99.90
21612;DHT22;47005;52.292;13.452;2022-09-09T07:38:02;16.00;99.90
21612;DHT22;47005;52.292;13.452;2022-09-09T07:40:30;16.00;99.90
21612;DHT22;47005;52.292;13.452;2022-09-09T07:42:56;16.00;99.90
21612;DHT22;47005;52.292;13.452;2022-09-09T07:45:22;16.00;99.90
21612;DHT22;47005;52.292;13.452;2022-09-09T07:47:47;16.10;99.90
21612;DHT22;47005;52.292;13.452;2022-09-09T07:50:14;16.10;99.90
21612;DHT22;47005;52.292;13.452;2022-09-09T07:52:40;16.10;99.90
21612;DHT22;47005;52.292;13.452;2022-09-09T07:55:06;16.10;99.90
21612;DHT22;47005;52.292;13.452;2022-09-09T07:57:32;16.10;99.90
21612;DHT22;47005;52.292;13.452;2022-09-09T07:59:57;16.20;99.90
21612;DHT22;47005;52.292;13.452;2022-09-09T08:02:23;16.20;99.90
21612;DHT22;47005;52.292;13.452;2022-09-09T08:04:51;16.30;99.90
21612;DHT22;47005;52.292;13.452;2022-09-09T08:07:17;16.20;99.90
21612;DHT22;47005;52.292;13.452;2022-09-09T08:09:43;16.20;99.90
21612;DHT22;47005;52.292;13.452;2022-09-09T08:12:09;16.30;99.90
21612;DHT22;47005;52.292;13.452;2022-09-09T08:14:36;16.30;99.90
21612;DHT22;47005;52.292;13.452;2022-09-09T08:17:01;16.20;99.90
21612;DHT22;47005;52.292;13.452;2022-09-09T08:19:27;16.30;99.90
21612;DHT22;47005;52.292;13.452;2022-09-09T08:21:55;16.30;99.90
21612;DHT22;47005;52.292;13.452;2022-09-09T08:24:21;16.40;99.90
21612;DHT22;47005;52.292;13.452;2022-09-09T08:26:48;16.30;99.90
21612;DHT22;47005;52.292;13.452;2022-09-09T08:29:15;16.40;99.90
21612;DHT22;47005;52.292;13.452;2022-09-09T08:31:42;16.40;99.90
21612;DHT22;47005;52.292;13.452;2022-09-09T08:34:08;16.50;99.90
21612;DHT22;47005;52.292;13.452;2022-09-09T08:36:37;16.50;99.90
21612;DHT22;47005;52.292;13.452;2022-09-09T08:39:04;16.50;99.90
21612;DHT22;47005;52.292;13.452;2022-09-09T08:44:54;16.60;99.90
21612;DHT22;47005;52.292;13.452;2022-09-09T08:53:11;16.70;99.90
21612;DHT22;47005;52.292;13.452;2022-09-09T08:55:53;16.70;99.90
21612;DHT22;47005;52.292;13.452;2022-09-09T08:58:21;16.70;99.90
21612;DHT22;47005;52.292;13.452;2022-09-09T09:09:30;16.90;99.90
21612;DHT22;47005;52.292;13.452;2022-09-09T09:12:00;17.00;99.90
21612;DHT22;47005;52.292;13.452;2022-09-09T09:14:30;17.00;99.90
21612;DHT22;47005;52.292;13.452;2022-09-09T09:17:05;17.10;99.90
21612;DHT22;47005;52.292;13.452;2022-09-09T09:19:33;17.20;99.90
21612;DHT22;47005;52.292;13.452;2022-09-09T09:24:54;17.20;99.90
21612;DHT22;47005;52.292;13.452;2022-09-09T09:30:15;17.30;99.90
21612;DHT22;47005;52.292;13.452;2022-09-09T09:32:49;17.30;99.90
21612;DHT22;47005;52.292;13.452;2022-09-09T09:35:16;17.40;99.90
21612;DHT22;47005;52.292;13.452;2022-09-09T09:37:42;17.40;99.90
21612;DHT22;47005;52.292;13.452;2022-09-09T09:40:17;17.40;99.90
21612;DHT22;47005;52.292;13.452;2022-09-09T09:42:54;17.40;99.90
21612;DHT22;47005;52.292;13.452;2022-09-09T09:48:02;17.50;99.90
21612;DHT22;47005;52.292;13.452;2022-09-09T09:50:28;17.50;99.90
21612;DHT22;47005;52.292;13.452;2022-09-09T09:52:56;17.50;99.90
21612;DHT22;47005;52.292;13.452;2022-09-09T09:55:22;17.60;99.90
21612;DHT22;47005;52.292;13.452;2022-09-09T09:57:51;17.60;99.90
21612;DHT22;47005;52.292;13.452;2022-09-09T10:00:18;17.50;99.90
21612;DHT22;47005;52.292;13.452;2022-09-09T10:02:46;17.60;99.90
21612;DHT22;47005;52.292;13.452;2022-09-09T10:05:23;17.70;99.90
21612;DHT22;47005;52.292;13.452;2022-09-09T10:08:10;17.60;99.90
21612;DHT22;47005;52.292;13.452;2022-09-09T10:32:49;17.80;99.90
21612;DHT22;47005;52.292;13.452;2022-09-09T10:38:20;17.90;99.90
21612;DHT22;47005;52.292;13.452;2022-09-09T10:41:06;18.00;99.90
21612;DHT22;47005;52.292;13.452;2022-09-09T10:52:46;18.10;99.90
21612;DHT22;47005;52.292;13.452;2022-09-09T10:55:02;18.10;99.90
21612;DHT22;47005;52.292;13.452;2022-09-09T10:57:42;18.20;99.90
21612;DHT22;47005;52.292;13.452;2022-09-09T11:03:01;18.30;99.90
21612;DHT22;47005;52.292;13.452;2022-09-09T11:05:41;18.40;99.90
21612;DHT22;47005;52.292;13.452;2022-09-09T11:08:14;18.40;99.90
21612;DHT22;47005;52.292;13.452;2022-09-09T11:13:15;18.50;99.90
21612;DHT22;47005;52.292;13.452;2022-09-09T11:15:47;18.50;99.90
21612;DHT22;47005;52.292;13.452;2022-09-09T11:18:19;18.60;99.90
21612;DHT22;47005;52.292;13.452;2022-09-09T11:20:50;18.60;99.90
21612;DHT22;47005;52.292;13.452;2022-09-09T11:23:34;18.60;99.90
21612;DHT22;47005;52.292;13.452;2022-09-09T11:26:03;18.70;99.90
21612;DHT22;47005;52.292;13.452;2022-09-09T11:31:55;18.80;99.90
21612;DHT22;47005;52.292;13.452;2022-09-09T11:35:07;18.80;99.90
21612;DHT22;47005;52.292;13.452;2022-09-09T11:40:30;18.90;99.90
21612;DHT22;47005;52.292;13.452;2022-09-09T11:43:27;19.00;99.90
21612;DHT22;47005;52.292;13.452;2022-09-09T11:45:56;19.00;99.90
21612;DHT22;47005;52.292;13.452;2022-09-09T11:48:40;19.00;99.90
21612;DHT22;47005;52.292;13.452;2022-09-09T11:51:12;19.10;99.90
21612;DHT22;47005;52.292;13.452;2022-09-09T11:53:49;19.10;99.90
21612;DHT22;47005;52.292;13.452;2022-09-09T11:59:20;19.20;99.90
21612;DHT22;47005;52.292;13.452;2022-09-09T12:01:50;19.20;99.90
21612;DHT22;47005;52.292;13.452;2022-09-09T12:06:53;19.20;99.90
21612;DHT22;47005;52.292;13.452;2022-09-09T12:09:46;19.20;99.90
21612;DHT22;47005;52.292;13.452;2022-09-09T12:14:43;19.30;99.90
21612;DHT22;47005;52.292;13.452;2022-09-09T12:19:38;19.30;99.90
21612;DHT22;47005;52.292;13.452;2022-09-09T12:25:06;19.30;99.90
21612;DHT22;47005;52.292;13.452;2022-09-09T12:27:40;19.40;99.90
21612;DHT22;47005;52.292;13.452;2022-09-09T12:30:14;19.40;99.90
21612;DHT22;47005;52.292;13.452;2022-09-09T12:32:40;19.50;99.90
21612;DHT22;47005;52.292;13.452;2022-09-09T12:35:20;19.50;99.90
21612;DHT22;47005;52.292;13.452;2022-09-09T12:37:51;19.50;99.90
21612;DHT22;47005;52.292;13.452;2022-09-09T12:40:33;19.50;99.90
21612;DHT22;47005;52.292;13.452;2022-09-09T12:43:01;19.60;99.90
21612;DHT22;47005;52.292;13.452;2022-09-09T12:45:32;19.60;99.90
21612;DHT22;47005;52.292;13.452;2022-09-09T12:48:04;19.60;99.90
21612;DHT22;47005;52.292;13.452;2022-09-09T12:50:33;19.70;99.90
21612;DHT22;47005;52.292;13.452;2022-09-09T12:53:03;19.70;99.90
21612;DHT22;47005;52.292;13.452;2022-09-09T12:55:35;19.70;99.90
21612;DHT22;47005;52.292;13.452;2022-09-09T12:58:02;19.80;99.90
21612;DHT22;47005;52.292;13.452;2022-09-09T13:00:33;19.80;99.90
21612;DHT22;47005;52.292;13.452;2022-09-09T13:03:02;19.90;99.90
21612;DHT22;47005;52.292;13.452;2022-09-09T13:05:36;19.90;99.90
21612;DHT22;47005;52.292;13.452;2022-09-09T13:08:04;19.90;99.90
21612;DHT22;47005;52.292;13.452;2022-09-09T13:10:33;19.90;99.90
21612;DHT22;47005;52.292;13.452;2022-09-09T13:13:00;19.90;99.90
21612;DHT22;47005;52.292;13.452;2022-09-09T13:15:28;19.90;99.90
21612;DHT22;47005;52.292;13.452;2022-09-09T13:17:57;19.90;99.90
21612;DHT22;47005;52.292;13.452;2022-09-09T13:20:24;19.90;99.90
21612;DHT22;47005;52.292;13.452;2022-09-09T13:22:51;19.90;99.90
21612;DHT22;47005;52.292;13.452;2022-09-09T13:27:59;19.90;99.90
21612;DHT22;47005;52.292;13.452;2022-09-09T13:30:36;19.90;99.90
21612;DHT22;47005;52.292;13.452;2022-09-09T13:35:58;19.90;99.90
21612;DHT22;47005;52.292;13.452;2022-09-09T13:38:25;19.90;99.90
21612;DHT22;47005;52.292;13.452;2022-09-09T13:41:02;19.90;99.90
21612;DHT22;47005;52.292;13.452;2022-09-09T13:43:31;19.80;99.90
21612;DHT22;47005;52.292;13.452;2022-09-09T13:46:02;19.80;99.90
21612;DHT22;47005;52.292;13.452;2022-09-09T13:48:27;19.80;99.90
21612;DHT22;47005;52.292;13.452;2022-09-09T13:51:02;19.70;99.90
21612;DHT22;47005;52.292;13.452;2022-09-09T13:53:30;19.70;99.90
21612;DHT22;47005;52.292;13.452;2022-09-09T13:55:56;19.70;99.90
21612;DHT22;47005;52.292;13.452;2022-09-09T13:58:22;19.70;99.90
21612;DHT22;47005;52.292;13.452;2022-09-09T14:00:50;19.70;99.90
21612;DHT22;47005;52.292;13.452;2022-09-09T14:03:16;19.70;99.90
21612;DHT22;47005;52.292;13.452;2022-09-09T14:05:44;19.60;99.90
21612;DHT22;47005;52.292;13.452;2022-09-09T14:08:22;19.70;99.90
21612;DHT22;47005;52.292;13.452;2022-09-09T14:10:48;19.60;99.90
21612;DHT22;47005;52.292;13.452;2022-09-09T14:13:13;19.60;99.90
21612;DHT22;47005;52.292;13.452;2022-09-09T14:15:40;19.50;99.90
21612;DHT22;47005;52.292;13.452;2022-09-09T14:18:09;19.50;99.90
21612;DHT22;47005;52.292;13.452;2022-09-09T14:20:36;19.50;99.90
21612;DHT22;47005;52.292;13.452;2022-09-09T14:23:02;19.50;99.90
21612;DHT22;47005;52.292;13.452;2022-09-09T14:25:28;19.50;99.90
21612;DHT22;47005;52.292;13.452;2022-09-09T14:27:54;19.60;99.90
21612;DHT22;47005;52.292;13.452;2022-09-09T14:30:19;19.50;99.90
21612;DHT22;47005;52.292;13.452;2022-09-09T14:32:45;19.60;99.90
21612;DHT22;47005;52.292;13.452;2022-09-09T14:35:10;19.50;99.90
21612;DHT22;47005;52.292;13.452;2022-09-09T14:37:36;19.50;99.90
21612;DHT22;47005;52.292;13.452;2022-09-09T14:40:04;19.50;99.90
21612;DHT22;47005;52.292;13.452;2022-09-09T14:42:30;19.50;99.90
21612;DHT22;47005;52.292;13.452;2022-09-09T14:44:56;19.60;99.90
21612;DHT22;47005;52.292;13.452;2022-09-09T14:47:21;19.60;99.90
21612;DHT22;47005;52.292;13.452;2022-09-09T14:49:47;19.60;99.90
21612;DHT22;47005;52.292;13.452;2022-09-09T14:52:15;19.60;99.90
21612;DHT22;47005;52.292;13.452;2022-09-09T14:54:41;19.60;99.90
21612;DHT22;47005;52.292;13.452;2022-09-09T14:57:07;19.60;99.90
21612;DHT22;47005;52.292;13.452;2022-09-09T14:59:32;19.70;99.90
21612;DHT22;47005;52.292;13.452;2022-09-09T15:01:59;19.60;99.90
21612;DHT22;47005;52.292;13.452;2022-09-09T15:04:29;19.70;99.90
21612;DHT22;47005;52.292;13.452;2022-09-09T15:06:55;19.70;99.90
21612;DHT22;47005;52.292;13.452;2022-09-09T15:09:21;19.70;99.90
21612;DHT22;47005;52.292;13.452;2022-09-09T15:11:48;19.70;99.90
21612;DHT22;47005;52.292;13.452;2022-09-09T15:14:13;19.70;99.90
21612;DHT22;47005;52.292;13.452;2022-09-09T15:16:40;19.70;99.90
21612;DHT22;47005;52.292;13.452;2022-09-09T15:19:05;19.70;99.90
21612;DHT22;47005;52.292;13.452;2022-09-09T15:21:33;19.80;99.90
21612;DHT22;47005;52.292;13.452;2022-09-09T15:23:59;19.80;99.90
21612;DHT22;47005;52.292;13.452;2022-09-09T15:26:26;19.80;99.90
21612;DHT22;47005;52.292;13.452;2022-09-09T15:28:52;19.80;99.90
21612;DHT22;47005;52.292;13.452;2022-09-09T15:31:24;19.80;99.90
21612;DHT22;47005;52.292;13.452;2022-09-09T15:33:58;19.80;99.90
21612;DHT22;47005;52.292;13.452;2022-09-09T15:36:39;19.80;99.90
21612;DHT22;47005;52.292;13.452;2022-09-09T15:39:08;19.80;99.90
21612;DHT22;47005;52.292;13.452;2022-09-09T15:41:35;19.80;99.90
21612;DHT22;47005;52.292;13.452;2022-09-09T15:44:01;19.80;99.90
21612;DHT22;47005;52.292;13.452;2022-09-09T15:49:15;19.80;99.90
21612;DHT22;47005;52.292;13.452;2022-09-09T15:51:47;19.70;99.90
21612;DHT22;47005;52.292;13.452;2022-09-09T15:54:17;19.70;99.90
21612;DHT22;47005;52.292;13.452;2022-09-09T15:56:44;19.70;99.90
21612;DHT22;47005;52.292;13.452;2022-09-09T15:59:10;19.70;99.90
21612;DHT22;47005;52.292;13.452;2022-09-09T16:01:36;19.70;99.90
21612;DHT22;47005;52.292;13.452;2022-09-09T16:04:04;19.70;99.90
21612;DHT22;47005;52.292;13.452;2022-09-09T16:06:30;19.70;99.90
21612;DHT22;47005;52.292;13.452;2022-09-09T16:08:57;19.70;99.90
21612;DHT22;47005;52.292;13.452;2022-09-09T16:11:34;19.70;99.90
21612;DHT22;47005;52.292;13.452;2022-09-09T16:14:00;19.70;99.90
21612;DHT22;47005;52.292;13.452;2022-09-09T16:16:28;19.80;99.90
21612;DHT22;47005;52.292;13.452;2022-09-09T16:19:00;19.70;99.90
21612;DHT22;47005;52.292;13.452;2022-09-09T16:23:55;19.70;99.90
21612;DHT22;47005;52.292;13.452;2022-09-09T16:26:21;19.70;99.90
21612;DHT22;47005;52.292;13.452;2022-09-09T16:28:48;19.70;99.90
21612;DHT22;47005;52.292;13.452;2022-09-09T16:31:16;19.70;99.90
21612;DHT22;47005;52.292;13.452;2022-09-09T16:33:42;19.60;99.90
21612;DHT22;47005;52.292;13.452;2022-09-09T16:36:10;19.60;99.90
21612;DHT22;47005;52.292;13.452;2022-09-09T16:38:36;19.60;99.90
21612;DHT22;47005;52.292;13.452;2022-09-09T16:41:04;19.60;99.90
21612;DHT22;47005;52.292;13.452;2022-09-09T16:43:34;19.60;99.90
21612;DHT22;47005;52.292;13.452;2022-09-09T16:46:00;19.50;99.90
21612;DHT22;47005;52.292;13.452;2022-09-09T16:48:35;19.50;99.90
21612;DHT22;47005;52.292;13.452;2022-09-09T16:51:04;19.50;99.90
21612;DHT22;47005;52.292;13.452;2022-09-09T16:53:31;19.50;99.90
21612;DHT22;47005;52.292;13.452;2022-09-09T16:55:57;19.40;99.90
21612;DHT22;47005;52.292;13.452;2022-09-09T16:58:23;19.40;99.90
21612;DHT22;47005;52.292;13.452;2022-09-09T17:00:49;19.30;99.90
21612;DHT22;47005;52.292;13.452;2022-09-09T17:03:16;19.30;99.90
21612;DHT22;47005;52.292;13.452;2022-09-09T17:05:42;19.30;99.90
21612;DHT22;47005;52.292;13.452;2022-09-09T17:08:08;19.30;99.90
21612;DHT22;47005;52.292;13.452;2022-09-09T17:10:34;19.30;99.90
21612;DHT22;47005;52.292;13.452;2022-09-09T17:13:05;19.20;99.90
21612;DHT22;47005;52.292;13.452;2022-09-09T17:15:30;19.20;99.90
21612;DHT22;47005;52.292;13.452;2022-09-09T17:17:56;19.10;99.90
21612;DHT22;47005;52.292;13.452;2022-09-09T17:20:21;19.10;99.90
21612;DHT22;47005;52.292;13.452;2022-09-09T17:22:47;19.10;99.90
21612;DHT22;47005;52.292;13.452;2022-09-09T17:25:13;19.10;99.90
21612;DHT22;47005;52.292;13.452;2022-09-09T17:27:38;19.00;99.90
21612;DHT22;47005;52.292;13.452;2022-09-09T17:30:04;19.00;99.90
21612;DHT22;47005;52.292;13.452;2022-09-09T17:32:30;19.00;99.90
21612;DHT22;47005;52.292;13.452;2022-09-09T17:34:56;19.00;99.90
21612;DHT22;47005;52.292;13.452;2022-09-09T17:37:21;18.90;99.90
21612;DHT22;47005;52.292;13.452;2022-09-09T17:39:47;18.80;99.90
21612;DHT22;47005;52.292;13.452;2022-09-09T17:42:12;18.80;99.90
21612;DHT22;47005;52.292;13.452;2022-09-09T17:44:39;18.80;99.90
21612;DHT22;47005;52.292;13.452;2022-09-09T17:47:07;18.80;99.90
21612;DHT22;47005;52.292;13.452;2022-09-09T17:49:32;18.80;99.90
21612;DHT22;47005;52.292;13.452;2022-09-09T17:51:58;18.60;99.90
21612;DHT22;47005;52.292;13.452;2022-09-09T17:54:24;18.60;99.90
21612;DHT22;47005;52.292;13.452;2022-09-09T17:56:50;18.70;99.90
21612;DHT22;47005;52.292;13.452;2022-09-09T17:59:16;18.60;99.90
21612;DHT22;47005;52.292;13.452;2022-09-09T18:01:45;18.60;99.90
21612;DHT22;47005;52.292;13.452;2022-09-09T18:04:13;18.50;99.90
21612;DHT22;47005;52.292;13.452;2022-09-09T18:06:45;18.50;99.90